sensor_id;sensor_type;location;lat;lon;timestamp;P1;durP1;ratioP1;P2;durP2;ratioP2
1320;SDS011;653;51.480;11.992;2023-03-01T00:01:31;17.03;;;11.90;;
1320;SDS011;653;51.480;11.992;2023-03-01T00:03:58;16.03;;;10.47;;
1320;SDS011;653;51.480;11.992;2023-03-01T00:06:25;19.43;;;12.87;;
1320;SDS011;653;51.480;11.992;2023-03-01T00:08:51;16.50;;;9.90;;
1320;SDS011;653;51.480;11.992;2023-03-01T00:11:20;14.47;;;9.77;;
1320;SDS011;653;51.480;11.992;2023-03-01T00:13:52;14.53;;;9.63;;
1320;SDS011;653;51.480;11.992;2023-03-01T00:16:23;15.13;;;11.50;;
1320;SDS011;653;51.480;11.992;2023-03-01T00:18:54;17.53;;;12.33;;
1320;SDS011;653;51.480;11.992;2023-03-01T00:21:22;13.77;;;10.33;;
1320;SDS011;653;51.480;11.992;2023-03-01T00:23:51;13.40;;;10.30;;
1320;SDS011;653;51.480;11.992;2023-03-01T00:26:20;15.17;;;9.50;;
1320;SDS011;653;51.480;11.992;2023-03-01T00:28:47;13.80;;;10.70;;
1320;SDS011;653;51.480;11.992;2023-03-01T00:31:19;19.03;;;11.73;;
1320;SDS011;653;51.480;11.992;2023-03-01T00:33:52;14.60;;;11.53;;
1320;SDS011;653;51.480;11.992;2023-03-01T00:36:23;17.43;;;10.90;;
1320;SDS011;653;51.480;11.992;2023-03-01T00:38:50;16.50;;;12.47;;
1320;SDS011;653;51.480;11.992;2023-03-01T00:41:17;17.83;;;11.77;;
1320;SDS011;653;51.480;11.992;2023-03-01T00:43:45;16.33;;;11.10;;
1320;SDS011;653;51.480;11.992;2023-03-01T00:46:13;15.53;;;10.80;;
1320;SDS011;653;51.480;11.992;2023-03-01T00:48:44;14.67;;;12.20;;
1320;SDS011;653;51.480;11.992;2023-03-01T00:51:12;13.47;;;10.00;;
1320;SDS011;653;51.480;11.992;2023-03-01T00:53:43;15.50;;;11.60;;
1320;SDS011;653;51.480;11.992;2023-03-01T00:56:12;12.80;;;10.67;;
1320;SDS011;653;51.480;11.992;2023-03-01T00:58:40;16.93;;;10.63;;
1320;SDS011;653;51.480;11.992;2023-03-01T01:01:10;13.20;;;10.03;;
1320;SDS011;653;51.480;11.992;2023-03-01T01:03:46;16.87;;;11.60;;
1320;SDS011;653;51.480;11.992;2023-03-01T01:06:22;13.70;;;10.40;;
1320;SDS011;653;51.480;11.992;2023-03-01T01:08:48;14.70;;;11.10;;
1320;SDS011;653;51.480;11.992;2023-03-01T01:11:17;14.50;;;10.80;;
1320;SDS011;653;51.480;11.992;2023-03-01T01:13:44;14.07;;;9.63;;
1320;SDS011;653;51.480;11.992;2023-03-01T01:16:13;13.93;;;9.13;;
1320;SDS011;653;51.480;11.992;2023-03-01T01:18:40;16.43;;;10.03;;
1320;SDS011;653;51.480;11.992;2023-03-01T01:21:08;13.20;;;9.87;;
1320;SDS011;653;51.480;11.992;2023-03-01T01:23:37;21.97;;;11.00;;
1320;SDS011;653;51.480;11.992;2023-03-01T01:26:04;13.40;;;9.23;;
1320;SDS011;653;51.480;11.992;2023-03-01T01:28:34;13.50;;;10.10;;
1320;SDS011;653;51.480;11.992;2023-03-01T01:31:01;19.27;;;11.50;;
1320;SDS011;653;51.480;11.992;2023-03-01T01:33:27;14.40;;;10.13;;
1320;SDS011;653;51.480;11.992;2023-03-01T01:35:54;14.37;;;10.30;;
1320;SDS011;653;51.480;11.992;2023-03-01T01:38:20;17.63;;;11.20;;
1320;SDS011;653;51.480;11.992;2023-03-01T01:40:48;16.63;;;9.20;;
1320;SDS011;653;51.480;11.992;2023-03-01T01:43:22;16.53;;;10.80;;
1320;SDS011;653;51.480;11.992;2023-03-01T01:45:57;14.33;;;10.73;;
1320;SDS011;653;51.480;11.992;2023-03-01T01:48:44;14.27;;;9.43;;
1320;SDS011;653;51.480;11.992;2023-03-01T01:51:18;14.97;;;10.93;;
1320;SDS011;653;51.480;11.992;2023-03-01T01:53:47;15.17;;;10.50;;
1320;SDS011;653;51.480;11.992;2023-03-01T01:56:17;13.77;;;10.60;;
1320;SDS011;653;51.480;11.992;2023-03-01T01:58:45;14.10;;;8.87;;
1320;SDS011;653;51.480;11.992;2023-03-01T02:01:14;16.27;;;10.50;;
1320;SDS011;653;51.480;11.992;2023-03-01T02:03:41;13.80;;;9.20;;
1320;SDS011;653;51.480;11.992;2023-03-01T02:08:46;14.33;;;9.77;;
1320;SDS011;653;51.480;11.992;2023-03-01T02:11:15;16.00;;;10.30;;
1320;SDS011;653;51.480;11.992;2023-03-01T02:13:43;12.73;;;9.07;;
1320;SDS011;653;51.480;11.992;2023-03-01T02:16:11;12.80;;;9.60;;
1320;SDS011;653;51.480;11.992;2023-03-01T02:18:41;12.87;;;9.70;;
1320;SDS011;653;51.480;11.992;2023-03-01T02:23:50;13.70;;;9.10;;
1320;SDS011;653;51.480;11.992;2023-03-01T02:29:17;13.73;;;9.90;;
1320;SDS011;653;51.480;11.992;2023-03-01T02:31:43;16.80;;;9.53;;
1320;SDS011;653;51.480;11.992;2023-03-01T02:34:14;14.57;;;10.43;;
1320;SDS011;653;51.480;11.992;2023-03-01T02:36:53;13.90;;;9.37;;
1320;SDS011;653;51.480;11.992;2023-03-01T02:39:22;14.97;;;9.70;;
1320;SDS011;653;51.480;11.992;2023-03-01T02:41:56;14.23;;;9.67;;
1320;SDS011;653;51.480;11.992;2023-03-01T02:44:23;17.67;;;9.87;;
1320;SDS011;653;51.480;11.992;2023-03-01T02:46:51;14.80;;;10.10;;
1320;SDS011;653;51.480;11.992;2023-03-01T02:49:19;13.30;;;9.20;;
1320;SDS011;653;51.480;11.992;2023-03-01T02:54:53;12.37;;;8.67;;
1320;SDS011;653;51.480;11.992;2023-03-01T02:57:44;16.77;;;10.87;;
1320;SDS011;653;51.480;11.992;2023-03-01T03:00:19;14.30;;;9.07;;
1320;SDS011;653;51.480;11.992;2023-03-01T03:02:49;11.00;;;8.23;;
1320;SDS011;653;51.480;11.992;2023-03-01T03:05:20;13.77;;;9.70;;
1320;SDS011;653;51.480;11.992;2023-03-01T03:07:48;12.17;;;10.00;;
1320;SDS011;653;51.480;11.992;2023-03-01T03:10:20;15.67;;;9.37;;
1320;SDS011;653;51.480;11.992;2023-03-01T03:12:53;15.80;;;10.17;;
1320;SDS011;653;51.480;11.992;2023-03-01T03:15:25;17.90;;;9.40;;
1320;SDS011;653;51.480;11.992;2023-03-01T03:17:53;21.43;;;10.07;;
1320;SDS011;653;51.480;11.992;2023-03-01T03:20:21;11.57;;;9.00;;
1320;SDS011;653;51.480;11.992;2023-03-01T03:22:49;12.10;;;9.87;;
1320;SDS011;653;51.480;11.992;2023-03-01T03:25:28;13.10;;;9.00;;
1320;SDS011;653;51.480;11.992;2023-03-01T03:27:55;13.10;;;8.40;;
1320;SDS011;653;51.480;11.992;2023-03-01T03:30:32;11.43;;;8.30;;
1320;SDS011;653;51.480;11.992;2023-03-01T03:33:00;11.07;;;8.17;;
1320;SDS011;653;51.480;11.992;2023-03-01T03:35:29;10.50;;;8.53;;
1320;SDS011;653;51.480;11.992;2023-03-01T03:37:59;11.70;;;8.17;;
1320;SDS011;653;51.480;11.992;2023-03-01T03:40:36;14.73;;;9.30;;
1320;SDS011;653;51.480;11.992;2023-03-01T03:43:06;18.67;;;9.70;;
1320;SDS011;653;51.480;11.992;2023-03-01T03:45:34;11.80;;;8.80;;
1320;SDS011;653;51.480;11.992;2023-03-01T03:48:06;15.80;;;8.87;;
1320;SDS011;653;51.480;11.992;2023-03-01T03:50:34;15.13;;;9.83;;
1320;SDS011;653;51.480;11.992;2023-03-01T03:53:00;11.87;;;8.37;;
1320;SDS011;653;51.480;11.992;2023-03-01T03:55:29;15.30;;;9.07;;
1320;SDS011;653;51.480;11.992;2023-03-01T03:58:00;18.00;;;9.87;;
1320;SDS011;653;51.480;11.992;2023-03-01T04:00:43;18.17;;;10.30;;
1320;SDS011;653;51.480;11.992;2023-03-01T04:03:11;14.47;;;9.13;;
1320;SDS011;653;51.480;11.992;2023-03-01T04:05:39;15.33;;;9.00;;
1320;SDS011;653;51.480;11.992;2023-03-01T04:08:07;14.17;;;8.80;;
1320;SDS011;653;51.480;11.992;2023-03-01T04:10:38;14.93;;;9.67;;
1320;SDS011;653;51.480;11.992;2023-03-01T04:13:05;12.03;;;8.50;;
1320;SDS011;653;51.480;11.992;2023-03-01T04:15:33;13.30;;;9.40;;
1320;SDS011;653;51.480;11.992;2023-03-01T04:18:00;16.03;;;10.10;;
1320;SDS011;653;51.480;11.992;2023-03-01T04:20:26;13.60;;;9.07;;
1320;SDS011;653;51.480;11.992;2023-03-01T04:23:01;17.90;;;10.43;;
1320;SDS011;653;51.480;11.992;2023-03-01T04:25:57;15.83;;;10.77;;
1320;SDS011;653;51.480;11.992;2023-03-01T04:28:30;13.40;;;9.10;;
1320;SDS011;653;51.480;11.992;2023-03-01T04:31:15;18.10;;;11.27;;
1320;SDS011;653;51.480;11.992;2023-03-01T04:33:51;13.80;;;9.47;;
1320;SDS011;653;51.480;11.992;2023-03-01T04:36:20;14.37;;;10.50;;
1320;SDS011;653;51.480;11.992;2023-03-01T04:38:52;15.80;;;9.00;;
1320;SDS011;653;51.480;11.992;2023-03-01T04:41:20;14.50;;;9.13;;
1320;SDS011;653;51.480;11.992;2023-03-01T04:43:47;17.17;;;10.63;;
1320;SDS011;653;51.480;11.992;2023-03-01T04:46:15;18.50;;;11.40;;
1320;SDS011;653;51.480;11.992;2023-03-01T04:48:45;14.83;;;11.33;;
1320;SDS011;653;51.480;11.992;2023-03-01T04:51:14;13.67;;;10.93;;
1320;SDS011;653;51.480;11.992;2023-03-01T04:53:44;18.53;;;10.20;;
1320;SDS011;653;51.480;11.992;2023-03-01T04:56:12;18.23;;;10.00;;
1320;SDS011;653;51.480;11.992;2023-03-01T04:58:46;12.80;;;9.13;;
1320;SDS011;653;51.480;11.992;2023-03-01T05:01:13;15.13;;;9.97;;
1320;SDS011;653;51.480;11.992;2023-03-01T05:03:42;16.23;;;11.37;;
1320;SDS011;653;51.480;11.992;2023-03-01T05:06:18;16.50;;;10.43;;
1320;SDS011;653;51.480;11.992;2023-03-01T05:09:06;16.90;;;9.83;;
1320;SDS011;653;51.480;11.992;2023-03-01T05:11:32;15.07;;;11.13;;
1320;SDS011;653;51.480;11.992;2023-03-01T05:14:03;20.07;;;13.83;;
1320;SDS011;653;51.480;11.992;2023-03-01T05:16:29;22.13;;;15.70;;
1320;SDS011;653;51.480;11.992;2023-03-01T05:18:57;18.20;;;13.80;;
1320;SDS011;653;51.480;11.992;2023-03-01T05:21:24;18.13;;;13.37;;
1320;SDS011;653;51.480;11.992;2023-03-01T05:23:53;17.47;;;11.33;;
1320;SDS011;653;51.480;11.992;2023-03-01T05:26:19;14.67;;;11.07;;
1320;SDS011;653;51.480;11.992;2023-03-01T05:28:47;16.33;;;12.33;;
1320;SDS011;653;51.480;11.992;2023-03-01T05:31:13;17.37;;;11.20;;
1320;SDS011;653;51.480;11.992;2023-03-01T05:33:40;15.10;;;11.10;;
1320;SDS011;653;51.480;11.992;2023-03-01T05:36:07;17.00;;;11.33;;
1320;SDS011;653;51.480;11.992;2023-03-01T05:38:36;21.63;;;11.50;;
1320;SDS011;653;51.480;11.992;2023-03-01T05:41:01;16.00;;;10.80;;
1320;SDS011;653;51.480;11.992;2023-03-01T05:43:31;17.20;;;10.97;;
1320;SDS011;653;51.480;11.992;2023-03-01T05:46:00;16.73;;;11.30;;
1320;SDS011;653;51.480;11.992;2023-03-01T05:48:27;13.93;;;9.97;;
1320;SDS011;653;51.480;11.992;2023-03-01T05:50:53;16.67;;;11.90;;
1320;SDS011;653;51.480;11.992;2023-03-01T05:53:19;16.00;;;10.60;;
1320;SDS011;653;51.480;11.992;2023-03-01T05:55:46;17.60;;;10.33;;
1320;SDS011;653;51.480;11.992;2023-03-01T05:58:13;14.30;;;10.27;;
1320;SDS011;653;51.480;11.992;2023-03-01T06:00:41;14.80;;;10.50;;
1320;SDS011;653;51.480;11.992;2023-03-01T06:03:09;17.03;;;12.43;;
1320;SDS011;653;51.480;11.992;2023-03-01T06:05:37;19.00;;;12.60;;
1320;SDS011;653;51.480;11.992;2023-03-01T06:08:05;14.83;;;11.57;;
1320;SDS011;653;51.480;11.992;2023-03-01T06:10:31;18.73;;;13.00;;
1320;SDS011;653;51.480;11.992;2023-03-01T06:12:56;17.73;;;12.27;;
1320;SDS011;653;51.480;11.992;2023-03-01T06:15:26;20.37;;;12.47;;
1320;SDS011;653;51.480;11.992;2023-03-01T06:17:53;19.53;;;11.67;;
1320;SDS011;653;51.480;11.992;2023-03-01T06:20:24;16.53;;;12.57;;
1320;SDS011;653;51.480;11.992;2023-03-01T06:22:52;21.60;;;11.53;;
1320;SDS011;653;51.480;11.992;2023-03-01T06:25:19;16.13;;;11.50;;
1320;SDS011;653;51.480;11.992;2023-03-01T06:27:48;17.30;;;11.63;;
1320;SDS011;653;51.480;11.992;2023-03-01T06:30:16;18.10;;;10.80;;
1320;SDS011;653;51.480;11.992;2023-03-01T06:32:44;16.77;;;11.00;;
1320;SDS011;653;51.480;11.992;2023-03-01T06:35:12;17.70;;;10.40;;
1320;SDS011;653;51.480;11.992;2023-03-01T06:37:41;19.13;;;11.60;;
1320;SDS011;653;51.480;11.992;2023-03-01T06:40:08;16.23;;;10.50;;
1320;SDS011;653;51.480;11.992;2023-03-01T06:42:39;17.03;;;10.30;;
1320;SDS011;653;51.480;11.992;2023-03-01T06:45:08;15.83;;;10.87;;
1320;SDS011;653;51.480;11.992;2023-03-01T06:47:35;19.17;;;12.57;;
1320;SDS011;653;51.480;11.992;2023-03-01T06:50:02;22.50;;;11.47;;
1320;SDS011;653;51.480;11.992;2023-03-01T06:52:28;17.20;;;11.70;;
1320;SDS011;653;51.480;11.992;2023-03-01T06:54:54;19.60;;;11.90;;
1320;SDS011;653;51.480;11.992;2023-03-01T06:57:21;17.73;;;10.97;;
1320;SDS011;653;51.480;11.992;2023-03-01T06:59:48;25.40;;;15.10;;
1320;SDS011;653;51.480;11.992;2023-03-01T07:02:14;42.60;;;20.70;;
1320;SDS011;653;51.480;11.992;2023-03-01T07:04:44;144.67;;;54.90;;
1320;SDS011;653;51.480;11.992;2023-03-01T07:07:10;62.40;;;27.40;;
1320;SDS011;653;51.480;11.992;2023-03-01T07:09:40;34.83;;;19.80;;
1320;SDS011;653;51.480;11.992;2023-03-01T07:12:07;22.23;;;14.33;;
1320;SDS011;653;51.480;11.992;2023-03-01T07:14:34;24.43;;;14.30;;
1320;SDS011;653;51.480;11.992;2023-03-01T07:17:00;19.27;;;13.20;;
1320;SDS011;653;51.480;11.992;2023-03-01T07:19:26;22.10;;;13.07;;
1320;SDS011;653;51.480;11.992;2023-03-01T07:21:52;15.90;;;13.20;;
1320;SDS011;653;51.480;11.992;2023-03-01T07:24:17;21.13;;;13.17;;
1320;SDS011;653;51.480;11.992;2023-03-01T07:26:44;18.77;;;12.50;;
1320;SDS011;653;51.480;11.992;2023-03-01T07:29:12;15.40;;;11.30;;
1320;SDS011;653;51.480;11.992;2023-03-01T07:31:39;16.63;;;10.63;;
1320;SDS011;653;51.480;11.992;2023-03-01T07:34:06;14.53;;;10.33;;
1320;SDS011;653;51.480;11.992;2023-03-01T07:36:31;14.40;;;9.90;;
1320;SDS011;653;51.480;11.992;2023-03-01T07:38:56;18.17;;;11.27;;
1320;SDS011;653;51.480;11.992;2023-03-01T07:41:24;13.77;;;10.67;;
1320;SDS011;653;51.480;11.992;2023-03-01T07:43:50;15.00;;;11.00;;
1320;SDS011;653;51.480;11.992;2023-03-01T07:46:17;16.33;;;10.63;;
1320;SDS011;653;51.480;11.992;2023-03-01T07:48:46;17.80;;;12.20;;
1320;SDS011;653;51.480;11.992;2023-03-01T07:51:11;15.53;;;9.43;;
1320;SDS011;653;51.480;11.992;2023-03-01T07:53:38;15.47;;;11.07;;
1320;SDS011;653;51.480;11.992;2023-03-01T07:56:04;17.40;;;11.07;;
1320;SDS011;653;51.480;11.992;2023-03-01T07:58:41;14.20;;;11.13;;
1320;SDS011;653;51.480;11.992;2023-03-01T08:01:09;19.70;;;12.30;;
1320;SDS011;653;51.480;11.992;2023-03-01T08:03:38;18.90;;;12.27;;
1320;SDS011;653;51.480;11.992;2023-03-01T08:06:07;19.23;;;12.03;;
1320;SDS011;653;51.480;11.992;2023-03-01T08:08:35;17.80;;;12.60;;
1320;SDS011;653;51.480;11.992;2023-03-01T08:11:02;16.27;;;12.30;;
1320;SDS011;653;51.480;11.992;2023-03-01T08:13:29;17.30;;;12.47;;
1320;SDS011;653;51.480;11.992;2023-03-01T08:16:06;22.83;;;12.23;;
1320;SDS011;653;51.480;11.992;2023-03-01T08:18:34;19.17;;;12.20;;
1320;SDS011;653;51.480;11.992;2023-03-01T08:21:08;14.90;;;12.47;;
1320;SDS011;653;51.480;11.992;2023-03-01T08:23:36;17.70;;;11.77;;
1320;SDS011;653;51.480;11.992;2023-03-01T08:26:03;17.90;;;12.37;;
1320;SDS011;653;51.480;11.992;2023-03-01T08:28:35;21.20;;;12.67;;
1320;SDS011;653;51.480;11.992;2023-03-01T08:31:02;16.93;;;11.60;;
1320;SDS011;653;51.480;11.992;2023-03-01T08:33:31;23.50;;;13.77;;
1320;SDS011;653;51.480;11.992;2023-03-01T08:36:04;25.97;;;12.90;;
1320;SDS011;653;51.480;11.992;2023-03-01T08:38:34;22.93;;;12.67;;
1320;SDS011;653;51.480;11.992;2023-03-01T08:41:01;16.47;;;11.97;;
1320;SDS011;653;51.480;11.992;2023-03-01T08:43:29;13.43;;;11.10;;
1320;SDS011;653;51.480;11.992;2023-03-01T08:45:56;17.97;;;11.97;;
1320;SDS011;653;51.480;11.992;2023-03-01T08:48:22;18.63;;;12.10;;
1320;SDS011;653;51.480;11.992;2023-03-01T08:50:49;17.53;;;11.80;;
1320;SDS011;653;51.480;11.992;2023-03-01T08:53:16;16.47;;;10.90;;
1320;SDS011;653;51.480;11.992;2023-03-01T08:55:43;21.70;;;13.53;;
1320;SDS011;653;51.480;11.992;2023-03-01T08:58:08;23.20;;;15.70;;
1320;SDS011;653;51.480;11.992;2023-03-01T09:00:35;21.10;;;12.80;;
1320;SDS011;653;51.480;11.992;2023-03-01T09:03:02;16.80;;;12.13;;
1320;SDS011;653;51.480;11.992;2023-03-01T09:05:30;18.53;;;11.93;;
1320;SDS011;653;51.480;11.992;2023-03-01T09:07:58;18.40;;;12.97;;
1320;SDS011;653;51.480;11.992;2023-03-01T09:10:25;15.10;;;12.00;;
1320;SDS011;653;51.480;11.992;2023-03-01T09:12:54;19.63;;;12.70;;
1320;SDS011;653;51.480;11.992;2023-03-01T09:15:19;20.07;;;13.67;;
1320;SDS011;653;51.480;11.992;2023-03-01T09:17:47;20.90;;;13.10;;
1320;SDS011;653;51.480;11.992;2023-03-01T09:20:13;18.50;;;13.03;;
1320;SDS011;653;51.480;11.992;2023-03-01T09:22:40;23.13;;;14.27;;
1320;SDS011;653;51.480;11.992;2023-03-01T09:25:08;20.40;;;12.83;;
1320;SDS011;653;51.480;11.992;2023-03-01T09:27:34;18.07;;;13.93;;
1320;SDS011;653;51.480;11.992;2023-03-01T09:30:00;18.30;;;13.97;;
1320;SDS011;653;51.480;11.992;2023-03-01T09:32:26;18.73;;;13.70;;
1320;SDS011;653;51.480;11.992;2023-03-01T09:34:52;16.13;;;13.00;;
1320;SDS011;653;51.480;11.992;2023-03-01T09:37:33;18.13;;;12.90;;
1320;SDS011;653;51.480;11.992;2023-03-01T09:40:01;19.90;;;12.90;;
1320;SDS011;653;51.480;11.992;2023-03-01T09:42:32;20.40;;;13.13;;
1320;SDS011;653;51.480;11.992;2023-03-01T09:45:10;18.07;;;12.53;;
1320;SDS011;653;51.480;11.992;2023-03-01T09:47:43;18.97;;;13.93;;
1320;SDS011;653;51.480;11.992;2023-03-01T09:50:16;19.80;;;13.40;;
1320;SDS011;653;51.480;11.992;2023-03-01T09:53:26;18.83;;;12.37;;
1320;SDS011;653;51.480;11.992;2023-03-01T09:55:43;17.20;;;13.20;;
1320;SDS011;653;51.480;11.992;2023-03-01T09:58:42;23.27;;;13.83;;
1320;SDS011;653;51.480;11.992;2023-03-01T10:01:26;18.43;;;13.10;;
1320;SDS011;653;51.480;11.992;2023-03-01T10:04:22;20.77;;;14.57;;
1320;SDS011;653;51.480;11.992;2023-03-01T10:09:56;20.87;;;14.13;;
1320;SDS011;653;51.480;11.992;2023-03-01T10:12:32;23.03;;;13.47;;
1320;SDS011;653;51.480;11.992;2023-03-01T10:17:50;16.53;;;13.27;;
1320;SDS011;653;51.480;11.992;2023-03-01T10:20:30;16.80;;;13.70;;
1320;SDS011;653;51.480;11.992;2023-03-01T10:23:07;17.97;;;12.60;;
1320;SDS011;653;51.480;11.992;2023-03-01T10:29:19;24.10;;;14.30;;
1320;SDS011;653;51.480;11.992;2023-03-01T10:31:49;16.00;;;12.30;;
1320;SDS011;653;51.480;11.992;2023-03-01T10:34:36;20.43;;;13.13;;
1320;SDS011;653;51.480;11.992;2023-03-01T10:43:10;18.20;;;13.30;;
1320;SDS011;653;51.480;11.992;2023-03-01T10:45:38;16.30;;;12.40;;
1320;SDS011;653;51.480;11.992;2023-03-01T10:50:34;21.07;;;14.57;;
1320;SDS011;653;51.480;11.992;2023-03-01T10:53:02;22.90;;;15.77;;
1320;SDS011;653;51.480;11.992;2023-03-01T10:55:36;21.70;;;13.77;;
1320;SDS011;653;51.480;11.992;2023-03-01T10:58:22;21.50;;;14.20;;
1320;SDS011;653;51.480;11.992;2023-03-01T11:00:52;18.37;;;13.67;;
1320;SDS011;653;51.480;11.992;2023-03-01T11:03:29;19.33;;;13.00;;
1320;SDS011;653;51.480;11.992;2023-03-01T11:08:43;19.70;;;11.83;;
1320;SDS011;653;51.480;11.992;2023-03-01T11:14:17;19.83;;;12.60;;
1320;SDS011;653;51.480;11.992;2023-03-01T11:22:46;14.40;;;11.37;;
1320;SDS011;653;51.480;11.992;2023-03-01T11:25:39;17.47;;;11.43;;
1320;SDS011;653;51.480;11.992;2023-03-01T11:28:10;20.17;;;12.63;;
1320;SDS011;653;51.480;11.992;2023-03-01T11:30:45;17.93;;;11.60;;
1320;SDS011;653;51.480;11.992;2023-03-01T11:38:27;14.97;;;10.17;;
1320;SDS011;653;51.480;11.992;2023-03-01T11:41:05;13.63;;;9.10;;
1320;SDS011;653;51.480;11.992;2023-03-01T11:47:03;15.07;;;10.47;;
1320;SDS011;653;51.480;11.992;2023-03-01T11:52:53;12.80;;;10.73;;
1320;SDS011;653;51.480;11.992;2023-03-01T12:01:41;14.50;;;10.17;;
1320;SDS011;653;51.480;11.992;2023-03-01T12:04:42;15.20;;;10.20;;
1320;SDS011;653;51.480;11.992;2023-03-01T12:10:35;14.57;;;10.00;;
1320;SDS011;653;51.480;11.992;2023-03-01T12:16:39;17.73;;;10.90;;
1320;SDS011;653;51.480;11.992;2023-03-01T12:19:29;18.10;;;11.40;;
1320;SDS011;653;51.480;11.992;2023-03-01T12:31:38;14.53;;;10.67;;
1320;SDS011;653;51.480;11.992;2023-03-01T12:43:22;12.40;;;9.03;;
1320;SDS011;653;51.480;11.992;2023-03-01T12:52:10;11.40;;;8.60;;
1320;SDS011;653;51.480;11.992;2023-03-01T12:54:52;12.27;;;9.20;;
1320;SDS011;653;51.480;11.992;2023-03-01T12:57:33;9.03;;;7.80;;
1320;SDS011;653;51.480;11.992;2023-03-01T13:05:59;10.13;;;7.00;;
1320;SDS011;653;51.480;11.992;2023-03-01T13:08:40;10.00;;;7.50;;
1320;SDS011;653;51.480;11.992;2023-03-01T13:11:46;19.20;;;11.90;;
1320;SDS011;653;51.480;11.992;2023-03-01T13:16:51;9.27;;;6.67;;
1320;SDS011;653;51.480;11.992;2023-03-01T13:19:23;7.10;;;6.23;;
1320;SDS011;653;51.480;11.992;2023-03-01T13:21:52;7.60;;;6.20;;
1320;SDS011;653;51.480;11.992;2023-03-01T13:24:40;11.83;;;9.03;;
1320;SDS011;653;51.480;11.992;2023-03-01T13:29:52;10.83;;;7.90;;
1320;SDS011;653;51.480;11.992;2023-03-01T13:37:52;8.60;;;7.20;;
1320;SDS011;653;51.480;11.992;2023-03-01T13:41:01;9.30;;;6.63;;
1320;SDS011;653;51.480;11.992;2023-03-01T13:43:37;7.40;;;6.70;;
1320;SDS011;653;51.480;11.992;2023-03-01T13:46:07;10.13;;;7.47;;
1320;SDS011;653;51.480;11.992;2023-03-01T13:48:37;7.73;;;6.03;;
1320;SDS011;653;51.480;11.992;2023-03-01T13:51:06;6.83;;;5.60;;
1320;SDS011;653;51.480;11.992;2023-03-01T13:53:35;6.70;;;6.00;;
1320;SDS011;653;51.480;11.992;2023-03-01T13:56:15;11.57;;;7.67;;
1320;SDS011;653;51.480;11.992;2023-03-01T14:01:36;7.07;;;6.27;;
1320;SDS011;653;51.480;11.992;2023-03-01T14:04:03;5.83;;;5.20;;
1320;SDS011;653;51.480;11.992;2023-03-01T14:06:32;6.93;;;6.10;;
1320;SDS011;653;51.480;11.992;2023-03-01T14:14:45;10.90;;;8.03;;
1320;SDS011;653;51.480;11.992;2023-03-01T14:20:09;7.20;;;6.00;;
1320;SDS011;653;51.480;11.992;2023-03-01T14:22:57;8.23;;;7.43;;
1320;SDS011;653;51.480;11.992;2023-03-01T14:25:56;8.90;;;7.20;;
1320;SDS011;653;51.480;11.992;2023-03-01T14:28:26;9.17;;;7.30;;
1320;SDS011;653;51.480;11.992;2023-03-01T14:30:56;7.80;;;7.00;;
1320;SDS011;653;51.480;11.992;2023-03-01T14:33:36;7.90;;;7.10;;
1320;SDS011;653;51.480;11.992;2023-03-01T14:36:06;7.80;;;7.10;;
1320;SDS011;653;51.480;11.992;2023-03-01T14:38:46;7.40;;;6.67;;
1320;SDS011;653;51.480;11.992;2023-03-01T14:41:16;8.10;;;6.83;;
1320;SDS011;653;51.480;11.992;2023-03-01T14:43:44;10.33;;;7.73;;
1320;SDS011;653;51.480;11.992;2023-03-01T14:46:20;14.67;;;9.80;;
1320;SDS011;653;51.480;11.992;2023-03-01T14:48:51;10.90;;;9.30;;
1320;SDS011;653;51.480;11.992;2023-03-01T14:51:34;8.87;;;7.00;;
1320;SDS011;653;51.480;11.992;2023-03-01T14:54:26;8.40;;;6.80;;
1320;SDS011;653;51.480;11.992;2023-03-01T14:56:58;9.70;;;7.70;;
1320;SDS011;653;51.480;11.992;2023-03-01T14:59:24;8.43;;;6.57;;
1320;SDS011;653;51.480;11.992;2023-03-01T15:01:58;10.30;;;7.00;;
1320;SDS011;653;51.480;11.992;2023-03-01T15:04:28;7.53;;;6.83;;
1320;SDS011;653;51.480;11.992;2023-03-01T15:06:55;8.90;;;7.17;;
1320;SDS011;653;51.480;11.992;2023-03-01T15:09:21;7.83;;;7.03;;
1320;SDS011;653;51.480;11.992;2023-03-01T15:11:48;6.93;;;6.23;;
1320;SDS011;653;51.480;11.992;2023-03-01T15:20:03;13.50;;;8.73;;
1320;SDS011;653;51.480;11.992;2023-03-01T15:22:31;8.27;;;7.50;;
1320;SDS011;653;51.480;11.992;2023-03-01T15:24:58;10.13;;;7.20;;
1320;SDS011;653;51.480;11.992;2023-03-01T15:27:25;9.20;;;6.90;;
1320;SDS011;653;51.480;11.992;2023-03-01T15:29:58;8.87;;;6.73;;
1320;SDS011;653;51.480;11.992;2023-03-01T15:32:36;10.63;;;7.33;;
1320;SDS011;653;51.480;11.992;2023-03-01T15:41:29;8.03;;;5.80;;
1320;SDS011;653;51.480;11.992;2023-03-01T15:43:59;8.07;;;6.07;;
1320;SDS011;653;51.480;11.992;2023-03-01T15:46:32;11.20;;;6.53;;
1320;SDS011;653;51.480;11.992;2023-03-01T15:49:00;11.20;;;7.37;;
1320;SDS011;653;51.480;11.992;2023-03-01T15:51:31;9.13;;;7.03;;
1320;SDS011;653;51.480;11.992;2023-03-01T15:54:02;10.60;;;7.40;;
1320;SDS011;653;51.480;11.992;2023-03-01T15:56:49;7.53;;;6.83;;
1320;SDS011;653;51.480;11.992;2023-03-01T15:59:17;8.80;;;6.77;;
1320;SDS011;653;51.480;11.992;2023-03-01T16:01:46;8.77;;;6.83;;
1320;SDS011;653;51.480;11.992;2023-03-01T16:04:17;9.30;;;6.80;;
1320;SDS011;653;51.480;11.992;2023-03-01T16:06:52;8.50;;;5.90;;
1320;SDS011;653;51.480;11.992;2023-03-01T16:09:23;8.53;;;6.43;;
1320;SDS011;653;51.480;11.992;2023-03-01T16:11:53;6.70;;;6.00;;
1320;SDS011;653;51.480;11.992;2023-03-01T16:14:20;7.40;;;5.97;;
1320;SDS011;653;51.480;11.992;2023-03-01T16:16:46;7.93;;;6.90;;
1320;SDS011;653;51.480;11.992;2023-03-01T16:19:15;9.67;;;7.23;;
1320;SDS011;653;51.480;11.992;2023-03-01T16:21:42;9.80;;;7.80;;
1320;SDS011;653;51.480;11.992;2023-03-01T16:24:10;9.53;;;7.13;;
1320;SDS011;653;51.480;11.992;2023-03-01T16:26:36;8.17;;;6.87;;
1320;SDS011;653;51.480;11.992;2023-03-01T16:29:04;8.23;;;6.73;;
1320;SDS011;653;51.480;11.992;2023-03-01T16:31:31;6.03;;;5.40;;
1320;SDS011;653;51.480;11.992;2023-03-01T16:33:58;8.97;;;7.10;;
1320;SDS011;653;51.480;11.992;2023-03-01T16:36:27;7.20;;;6.00;;
1320;SDS011;653;51.480;11.992;2023-03-01T16:38:57;7.57;;;6.73;;
1320;SDS011;653;51.480;11.992;2023-03-01T16:41:24;7.70;;;6.63;;
1320;SDS011;653;51.480;11.992;2023-03-01T16:43:50;10.90;;;6.63;;
1320;SDS011;653;51.480;11.992;2023-03-01T16:46:21;7.10;;;5.63;;
1320;SDS011;653;51.480;11.992;2023-03-01T16:48:50;11.03;;;7.43;;
1320;SDS011;653;51.480;11.992;2023-03-01T16:51:18;8.00;;;7.17;;
1320;SDS011;653;51.480;11.992;2023-03-01T16:53:43;8.27;;;6.60;;
1320;SDS011;653;51.480;11.992;2023-03-01T16:56:11;10.73;;;7.33;;
1320;SDS011;653;51.480;11.992;2023-03-01T16:58:37;10.30;;;6.87;;
1320;SDS011;653;51.480;11.992;2023-03-01T17:01:10;10.33;;;7.43;;
1320;SDS011;653;51.480;11.992;2023-03-01T17:03:39;8.80;;;6.17;;
1320;SDS011;653;51.480;11.992;2023-03-01T17:06:09;7.27;;;6.40;;
1320;SDS011;653;51.480;11.992;2023-03-01T17:08:38;10.13;;;6.60;;
1320;SDS011;653;51.480;11.992;2023-03-01T17:11:16;8.27;;;6.27;;
1320;SDS011;653;51.480;11.992;2023-03-01T17:13:42;9.60;;;6.53;;
1320;SDS011;653;51.480;11.992;2023-03-01T17:16:09;13.67;;;7.10;;
1320;SDS011;653;51.480;11.992;2023-03-01T17:18:38;8.37;;;7.10;;
1320;SDS011;653;51.480;11.992;2023-03-01T17:21:06;10.87;;;8.47;;
1320;SDS011;653;51.480;11.992;2023-03-01T17:23:33;11.80;;;8.53;;
1320;SDS011;653;51.480;11.992;2023-03-01T17:26:01;9.93;;;7.77;;
1320;SDS011;653;51.480;11.992;2023-03-01T17:28:29;8.93;;;7.27;;